Time;durP1;ratioP1;P1;durP2;ratioP2;P2;SDS_P1;SDS_P2;PMS_P1;PMS_P2;Temp;Humidity;BMP_temperature;BMP_pressure;BME280_temperature;BME280_humidity;BME280_pressure;Samples;Min_cycle;Max_cycle;Signal;HPM_P1;HPM_P2
2021/12/27 00:00:17;;;;;;;7.5;5.6;;;;;;;;;;;;;
2021/12/27 00:02:43;;;;;;;7.8;6.1;;;;;;;;;;;;;
2021/12/27 00:05:08;;;;;;;7.9;6.2;;;;;;;;;;;;;
2021/12/27 00:07:33;;;;;;;7.3;5.2;;;;;;;;;;;;;
2021/12/27 00:10:00;;;;;;;7.4;5.5;;;;;;;;;;;;;
2021/12/27 00:12:25;;;;;;;8;4.8;;;;;;;;;;;;;
2021/12/27 00:14:50;;;;;;;7.4;5;;;;;;;;;;;;;
2021/12/27 00:17:16;;;;;;;9.5;7;;;;;;;;;;;;;
2021/12/27 00:19:41;;;;;;;9.5;6.3;;;;;;;;;;;;;
2021/12/27 00:22:06;;;;;;;8.8;6;;;;;;;;;;;;;
2021/12/27 00:24:31;;;;;;;7.8;6.2;;;;;;;;;;;;;
2021/12/27 00:26:58;;;;;;;12.3;8.6;;;;;;;;;;;;;
2021/12/27 00:29:23;;;;;;;9.6;6.3;;;;;;;;;;;;;
2021/12/27 00:31:48;;;;;;;7.9;5.8;;;;;;;;;;;;;
2021/12/27 00:34:13;;;;;;;9.5;6.3;;;;;;;;;;;;;
2021/12/27 00:36:39;;;;;;;10.2;6.5;;;;;;;;;;;;;
2021/12/27 00:39:05;;;;;;;9.4;6.3;;;;;;;;;;;;;
2021/12/27 00:41:32;;;;;;;7.9;5.5;;;;;;;;;;;;;
2021/12/27 00:43:57;;;;;;;9.1;5.8;;;;;;;;;;;;;
2021/12/27 00:46:22;;;;;;;7.3;5.5;;;;;;;;;;;;;
2021/12/27 00:48:47;;;;;;;6;4.8;;;;;;;;;;;;;
2021/12/27 00:51:12;;;;;;;7.2;4.9;;;;;;;;;;;;;
2021/12/27 00:53:37;;;;;;;7.3;5.1;;;;;;;;;;;;;
2021/12/27 00:56:04;;;;;;;7;5.1;;;;;;;;;;;;;
2021/12/27 00:58:29;;;;;;;6.2;4.7;;;;;;;;;;;;;
2021/12/27 01:00:54;;;;;;;7.8;5.3;;;;;;;;;;;;;
2021/12/27 01:03:20;;;;;;;5.9;4.3;;;;;;;;;;;;;
2021/12/27 01:05:45;;;;;;;5.7;3.7;;;;;;;;;;;;;
2021/12/27 01:08:10;;;;;;;5.9;4.2;;;;;;;;;;;;;
2021/12/27 01:10:59;;;;;;;5.3;4;;;;;;;;;;;;;
2021/12/27 01:13:18;;;;;;;6.8;4.4;;;;;;;;;;;;;
2021/12/27 01:15:49;;;;;;;5;4.1;;;;;;;;;;;;;
2021/12/27 01:17:53;;;;;;;5.6;4.2;;;;;;;;;;;;;
2021/12/27 01:20:18;;;;;;;6.6;4.7;;;;;;;;;;;;;
2021/12/27 01:22:43;;;;;;;5.7;4.3;;;;;;;;;;;;;
2021/12/27 01:25:09;;;;;;;5;4.1;;;;;;;;;;;;;
2021/12/27 01:27:34;;;;;;;6.5;4.6;;;;;;;;;;;;;
2021/12/27 01:29:59;;;;;;;4.4;3.9;;;;;;;;;;;;;
2021/12/27 01:32:28;;;;;;;6.1;4.5;;;;;;;;;;;;;
2021/12/27 01:34:49;;;;;;;5.8;4.5;;;;;;;;;;;;;
2021/12/27 01:37:17;;;;;;;5.1;4;;;;;;;;;;;;;
2021/12/27 01:39:39;;;;;;;4.8;3.8;;;;;;;;;;;;;
2021/12/27 01:42:05;;;;;;;5;3.9;;;;;;;;;;;;;
2021/12/27 01:44:30;;;;;;;5.4;3.8;;;;;;;;;;;;;
2021/12/27 01:46:55;;;;;;;5.1;4.1;;;;;;;;;;;;;
2021/12/27 01:49:21;;;;;;;4.8;3.7;;;;;;;;;;;;;
2021/12/27 01:51:46;;;;;;;5.3;4.1;;;;;;;;;;;;;
2021/12/27 01:54:11;;;;;;;5.2;4.2;;;;;;;;;;;;;
2021/12/27 01:56:37;;;;;;;4.8;4.1;;;;;;;;;;;;;
2021/12/27 01:59:02;;;;;;;5.6;4.3;;;;;;;;;;;;;
2021/12/27 02:01:29;;;;;;;6.4;3.8;;;;;;;;;;;;;
2021/12/27 02:03:55;;;;;;;4.9;3.8;;;;;;;;;;;;;
2021/12/27 02:06:20;;;;;;;5;3.7;;;;;;;;;;;;;
2021/12/27 02:08:45;;;;;;;6;3.8;;;;;;;;;;;;;
2021/12/27 02:11:11;;;;;;;5.6;4;;;;;;;;;;;;;
2021/12/27 02:13:41;;;;;;;5.5;3.6;;;;;;;;;;;;;
2021/12/27 02:16:02;;;;;;;4.8;3.8;;;;;;;;;;;;;
2021/12/27 02:18:27;;;;;;;4.3;3.7;;;;;;;;;;;;;
2021/12/27 02:20:52;;;;;;;4.4;3.7;;;;;;;;;;;;;
2021/12/27 02:23:18;;;;;;;5.2;3.6;;;;;;;;;;;;;
2021/12/27 02:28:07;;;;;;;4.5;3.3;;;;;;;;;;;;;
2021/12/27 02:30:32;;;;;;;4.7;3.3;;;;;;;;;;;;;
2021/12/27 02:32:58;;;;;;;4;3.3;;;;;;;;;;;;;
2021/12/27 02:35:23;;;;;;;4.3;3.4;;;;;;;;;;;;;
2021/12/27 02:37:48;;;;;;;3.6;3.2;;;;;;;;;;;;;
2021/12/27 02:40:13;;;;;;;4.2;3.3;;;;;;;;;;;;;
2021/12/27 02:42:39;;;;;;;11.2;7.2;;;;;;;;;;;;;
2021/12/27 02:45:04;;;;;;;14.4;8.6;;;;;;;;;;;;;
2021/12/27 02:47:32;;;;;;;10.5;7;;;;;;;;;;;;;
2021/12/27 02:49:58;;;;;;;12;7.4;;;;;;;;;;;;;
2021/12/27 02:52:23;;;;;;;7.6;5.9;;;;;;;;;;;;;
2021/12/27 02:54:48;;;;;;;5.6;4.1;;;;;;;;;;;;;
2021/12/27 02:57:15;;;;;;;4.9;4.2;;;;;;;;;;;;;
2021/12/27 02:59:39;;;;;;;6.3;4.2;;;;;;;;;;;;;
2021/12/27 03:02:05;;;;;;;7.7;3.6;;;;;;;;;;;;;
2021/12/27 03:04:30;;;;;;;4.7;3.3;;;;;;;;;;;;;
2021/12/27 03:06:56;;;;;;;3.6;3.3;;;;;;;;;;;;;
2021/12/27 03:09:21;;;;;;;3.8;3;;;;;;;;;;;;;
2021/12/27 03:11:47;;;;;;;3;2.7;;;;;;;;;;;;;
2021/12/27 03:14:12;;;;;;;4.2;3.1;;;;;;;;;;;;;
2021/12/27 03:16:40;;;;;;;3.3;2.7;;;;;;;;;;;;;
2021/12/27 03:19:05;;;;;;;3.2;2.7;;;;;;;;;;;;;
2021/12/27 03:21:30;;;;;;;3.5;3;;;;;;;;;;;;;
2021/12/27 03:23:55;;;;;;;3.2;2.7;;;;;;;;;;;;;
2021/12/27 03:26:21;;;;;;;3.1;2.7;;;;;;;;;;;;;
2021/12/27 03:28:47;;;;;;;4.3;3.2;;;;;;;;;;;;;
2021/12/27 03:31:15;;;;;;;4.4;3.1;;;;;;;;;;;;;
2021/12/27 03:33:39;;;;;;;4.2;3.1;;;;;;;;;;;;;
2021/12/27 03:36:06;;;;;;;3.7;3.2;;;;;;;;;;;;;
2021/12/27 03:38:29;;;;;;;4.2;3.1;;;;;;;;;;;;;
2021/12/27 03:40:56;;;;;;;4;3.2;;;;;;;;;;;;;
2021/12/27 03:43:21;;;;;;;4.3;3.4;;;;;;;;;;;;;
2021/12/27 03:45:48;;;;;;;5.3;4.8;;;;;;;;;;;;;
2021/12/27 03:48:13;;;;;;;3.8;3;;;;;;;;;;;;;
2021/12/27 03:50:39;;;;;;;5.1;4.6;;;;;;;;;;;;;
2021/12/27 03:53:04;;;;;;;9.1;8.2;;;;;;;;;;;;;
2021/12/27 03:55:30;;;;;;;4.7;4.1;;;;;;;;;;;;;
2021/12/27 03:58:04;;;;;;;3.2;2.9;;;;;;;;;;;;;
2021/12/27 04:02:36;;;;;;;4.2;3;;;;;;;1.84;100;927.3019;;;;
2021/12/27 04:04:56;;;;;;;4.4;2.9;;;;;;;2.04;100;927.3326;;;;
2021/12/27 04:07:22;;;;;;;5.1;3.6;;;;;;;1.82;100;927.2834;;;;
2021/12/27 04:09:49;;;;;;;4.9;3.6;;;;;;;1.83;100;927.3857;;;;
2021/12/27 04:12:14;;;;;;;4.5;3.1;;;;;;;1.83;100;927.385;;;;
2021/12/27 04:14:41;;;;;;;5.5;3.9;;;;;;;1.8;100;927.334;;;;
2021/12/27 04:17:07;;;;;;;4.6;3.9;;;;;;;1.73;100;927.3508;;;;
2021/12/27 04:19:33;;;;;;;5;3.4;;;;;;;1.77;100;927.3839;;;;
2021/12/27 04:21:59;;;;;;;5.8;3.6;;;;;;;1.46;100;927.3744;;;;
2021/12/27 04:24:26;;;;;;;3.9;3.1;;;;;;;1.59;100;927.3565;;;;
2021/12/27 04:26:51;;;;;;;4;3.1;;;;;;;1.67;100;927.3761;;;;
2021/12/27 04:29:17;;;;;;;5;3.3;;;;;;;1.7;100;927.5154;;;;
2021/12/27 04:32:09;;;;;;;3.9;2.9;;;;;;;1.68;100;927.5104;;;;
2021/12/27 04:34:38;;;;;;;4;3;;;;;;;1.67;100;927.5086;;;;
2021/12/27 04:37:13;;;;;;;5.3;3.6;;;;;;;1.67;100;927.4992;;;;
2021/12/27 04:39:42;;;;;;;4.2;3.2;;;;;;;1.74;100;927.5645;;;;
2021/12/27 04:42:07;;;;;;;4;3.4;;;;;;;1.65;100;927.5333;;;;
2021/12/27 04:44:35;;;;;;;6.1;4.3;;;;;;;1.59;100;927.5966;;;;
2021/12/27 04:47:00;;;;;;;5.4;3.9;;;;;;;1.61;100;927.5823;;;;
2021/12/27 04:49:25;;;;;;;6.6;3.5;;;;;;;1.66;100;927.6228;;;;
2021/12/27 04:51:53;;;;;;;5;3.5;;;;;;;1.67;100;927.5157;;;;
2021/12/27 04:54:18;;;;;;;4.7;3.7;;;;;;;1.75;100;927.5748;;;;
2021/12/27 04:56:47;;;;;;;4.9;3.6;;;;;;;1.89;100;927.5959;;;;
2021/12/27 04:59:11;;;;;;;4.9;3.3;;;;;;;1.89;100;927.6108;;;;
2021/12/27 05:01:38;;;;;;;4.9;3.8;;;;;;;1.94;100;927.5452;;;;
2021/12/27 05:04:15;;;;;;;5.3;3.4;;;;;;;1.93;99.68359;927.5277;;;;
2021/12/27 05:06:43;;;;;;;7.4;4.5;;;;;;;1.96;99.93652;927.497;;;;
2021/12/27 05:09:08;;;;;;;5.4;3.8;;;;;;;2.01;99.97168;927.4774;;;;
2021/12/27 05:11:37;;;;;;;3.9;2.9;;;;;;;1.98;99.73047;927.4631;;;;
2021/12/27 05:14:02;;;;;;;5.4;3.3;;;;;;;1.84;100;927.4291;;;;
2021/12/27 05:16:31;;;;;;;4.1;3.4;;;;;;;1.93;100;927.4766;;;;
2021/12/27 05:19:00;;;;;;;5.2;4;;;;;;;1.97;100;927.4227;;;;
2021/12/27 05:21:25;;;;;;;6.6;3.9;;;;;;;1.85;100;927.4724;;;;
2021/12/27 05:23:54;;;;;;;5.4;3.8;;;;;;;1.8;100;927.5184;;;;
2021/12/27 05:26:19;;;;;;;6.3;4;;;;;;;1.78;100;927.5027;;;;
2021/12/27 05:28:47;;;;;;;4.5;3.6;;;;;;;1.79;100;927.4166;;;;
2021/12/27 05:31:12;;;;;;;5.4;3.9;;;;;;;1.69;100;927.5662;;;;
2021/12/27 05:33:37;;;;;;;4.2;3;;;;;;;1.7;100;927.6082;;;;
2021/12/27 05:36:05;;;;;;;4;3.6;;;;;;;1.68;100;927.4603;;;;
2021/12/27 05:38:30;;;;;;;4.5;3.5;;;;;;;1.83;100;927.4384;;;;
2021/12/27 05:40:59;;;;;;;5.9;4.1;;;;;;;1.78;100;927.4125;;;;
2021/12/27 05:43:24;;;;;;;11;4.3;;;;;;;1.85;100;927.3508;;;;
2021/12/27 05:45:53;;;;;;;5;4.4;;;;;;;1.8;100;927.3639;;;;
2021/12/27 05:48:18;;;;;;;4.9;3.8;;;;;;;1.83;100;927.3144;;;;
2021/12/27 05:50:48;;;;;;;4.8;3.9;;;;;;;1.73;100;927.2824;;;;
2021/12/27 05:53:13;;;;;;;6.4;4.8;;;;;;;1.67;100;927.3094;;;;
2021/12/27 05:55:42;;;;;;;7.1;5.5;;;;;;;1.67;100;927.1492;;;;
2021/12/27 05:58:07;;;;;;;6.5;4.7;;;;;;;1.65;100;927.2436;;;;
2021/12/27 06:00:38;;;;;;;10.2;6.5;;;;;;;1.54;100;927.2422;;;;
2021/12/27 06:03:09;;;;;;;7.4;5;;;;;;;1.32;100;927.14;;;;
2021/12/27 06:05:37;;;;;;;7;4.7;;;;;;;1.29;100;927.2192;;;;
2021/12/27 06:08:02;;;;;;;9.4;5.9;;;;;;;1.27;100;927.2775;;;;
2021/12/27 06:10:27;;;;;;;7.2;5.3;;;;;;;1.31;100;927.2927;;;;
2021/12/27 06:12:54;;;;;;;7.5;4.9;;;;;;;1.22;100;927.3334;;;;
2021/12/27 06:15:19;;;;;;;6.2;4.5;;;;;;;1.16;100;927.2994;;;;
2021/12/27 06:17:49;;;;;;;7.1;4.5;;;;;;;1.19;100;927.2611;;;;
2021/12/27 06:20:19;;;;;;;6.9;5;;;;;;;1.12;100;927.2201;;;;
2021/12/27 06:22:47;;;;;;;6.2;4.9;;;;;;;1.22;100;927.3193;;;;
2021/12/27 06:25:12;;;;;;;6.6;4.6;;;;;;;1.22;100;927.1859;;;;
2021/12/27 06:27:37;;;;;;;6.1;4.9;;;;;;;1.3;100;927.2703;;;;
2021/12/27 06:30:09;;;;;;;6.3;4.6;;;;;;;1.41;100;927.2726;;;;
2021/12/27 06:32:34;;;;;;;8.1;5.5;;;;;;;1.44;100;927.217;;;;
2021/12/27 06:34:59;;;;;;;12.4;8.3;;;;;;;1.33;100;927.2148;;;;
2021/12/27 06:37:25;;;;;;;10.8;7.7;;;;;;;1.28;100;927.2166;;;;
2021/12/27 06:39:51;;;;;;;8.4;6.4;;;;;;;0.95;100;927.2224;;;;
2021/12/27 06:42:16;;;;;;;7.8;6.2;;;;;;;1.04;100;927.1717;;;;
2021/12/27 06:44:42;;;;;;;8.8;5.3;;;;;;;1.2;100;927.0809;;;;
2021/12/27 06:47:07;;;;;;;6;4.3;;;;;;;1.23;100;927.1103;;;;
2021/12/27 06:49:33;;;;;;;6.4;5.3;;;;;;;1.07;100;927.1395;;;;
2021/12/27 06:51:58;;;;;;;4.3;3.4;;;;;;;1.19;100;927.0714;;;;
2021/12/27 06:54:24;;;;;;;6.9;4.5;;;;;;;1.13;100;927.1278;;;;
2021/12/27 06:56:49;;;;;;;7.1;4.6;;;;;;;1.42;100;927.0251;;;;
2021/12/27 06:59:14;;;;;;;7.1;5.3;;;;;;;1.4;100;927.1121;;;;
2021/12/27 07:01:44;;;;;;;17.1;10.6;;;;;;;1.42;100;927.1192;;;;
2021/12/27 07:04:09;;;;;;;19;12.7;;;;;;;1.26;100;927.1345;;;;
2021/12/27 07:06:34;;;;;;;14.5;9.7;;;;;;;1.2;100;927.084;;;;
2021/12/27 07:08:59;;;;;;;15.9;9.9;;;;;;;1.35;100;927.0779;;;;
2021/12/27 07:11:29;;;;;;;11.1;7.7;;;;;;;1.52;100;927.0887;;;;
2021/12/27 07:13:53;;;;;;;11.8;8.1;;;;;;;1.7;100;927.041;;;;
2021/12/27 07:16:19;;;;;;;12.3;8.9;;;;;;;1.65;100;927.0422;;;;
2021/12/27 07:18:45;;;;;;;12.7;8.4;;;;;;;1.6;100;927.0005;;;;
2021/12/27 07:21:10;;;;;;;13.8;8.5;;;;;;;1.57;100;926.9292;;;;
2021/12/27 07:23:39;;;;;;;14.5;7.2;;;;;;;1.76;100;926.8934;;;;
2021/12/27 07:26:04;;;;;;;6.1;4.3;;;;;;;1.59;100;926.9124;;;;
2021/12/27 07:28:33;;;;;;;6.6;4;;;;;;;1.64;100;926.9194;;;;
2021/12/27 07:31:02;;;;;;;6.6;4;;;;;;;1.62;100;926.9589;;;;
2021/12/27 07:33:27;;;;;;;4.9;3.9;;;;;;;1.72;100;926.9856;;;;
2021/12/27 07:35:56;;;;;;;3.9;3.6;;;;;;;1.97;100;926.8803;;;;
2021/12/27 07:38:21;;;;;;;4.3;3.6;;;;;;;2.18;99.77637;926.7935;;;;
2021/12/27 07:40:48;;;;;;;6.4;3.5;;;;;;;2.17;99.01367;926.8434;;;;
2021/12/27 07:43:13;;;;;;;5;3.7;;;;;;;2.18;99.09375;926.8365;;;;
2021/12/27 07:45:40;;;;;;;4;3.6;;;;;;;2.22;98.54199;926.7992;;;;
2021/12/27 07:48:07;;;;;;;6.3;4.4;;;;;;;2.21;98.47266;926.7363;;;;
2021/12/27 07:50:34;;;;;;;5.9;4.2;;;;;;;2.12;98.25098;926.7592;;;;
2021/12/27 07:52:59;;;;;;;5.2;4.3;;;;;;;2.26;98.16113;926.7492;;;;
2021/12/27 07:55:27;;;;;;;7.3;5.2;;;;;;;2.23;97.94141;926.7344;;;;
2021/12/27 07:57:50;;;;;;;7.1;5.3;;;;;;;2.24;98.06738;926.741;;;;
2021/12/27 08:00:17;;;;;;;8.6;6.1;;;;;;;2.16;97.90039;926.7168;;;;
2021/12/27 08:02:42;;;;;;;7.7;5.7;;;;;;;2.05;98.24707;926.6337;;;;
2021/12/27 08:05:13;;;;;;;7.2;5.9;;;;;;;1.95;98.82813;926.6838;;;;
2021/12/27 08:07:41;;;;;;;8.6;6;;;;;;;2.04;98.90332;926.6239;;;;
2021/12/27 08:10:05;;;;;;;8.4;6.1;;;;;;;1.96;99.08789;926.5725;;;;
2021/12/27 08:12:33;;;;;;;7;5.5;;;;;;;1.97;99.39258;926.5531;;;;
2021/12/27 08:14:58;;;;;;;14.1;8.8;;;;;;;1.98;99.78613;926.5643;;;;
2021/12/27 08:17:29;;;;;;;40.7;21.2;;;;;;;2.64;99.34668;926.5219;;;;
2021/12/27 08:19:54;;;;;;;17.3;9.9;;;;;;;3.67;91.54297;926.4769;;;;
2021/12/27 08:22:20;;;;;;;4.8;3.9;;;;;;;4.09;87.24512;926.4728;;;;
2021/12/27 08:24:45;;;;;;;4.4;3.8;;;;;;;4.3;87.60352;926.4886;;;;
2021/12/27 08:27:12;;;;;;;4.4;3.7;;;;;;;4.96;82.84766;926.4589;;;;
2021/12/27 08:29:37;;;;;;;4.7;3.7;;;;;;;5.79;79.33984;926.4546;;;;
2021/12/27 08:32:02;;;;;;;7.1;5.4;;;;;;;6.52;75.68652;926.4111;;;;
2021/12/27 08:34:29;;;;;;;8.5;5.3;;;;;;;6.83;74.2373;926.4597;;;;
2021/12/27 08:36:54;;;;;;;8.5;6;;;;;;;6.64;74.29297;926.4498;;;;
2021/12/27 08:39:20;;;;;;;12;7.6;;;;;;;6.89;73.02344;926.4211;;;;
2021/12/27 08:41:46;;;;;;;11.1;6.1;;;;;;;6.71;72.6084;926.3734;;;;
2021/12/27 08:44:11;;;;;;;11.5;6.6;;;;;;;5.63;78.37305;926.3072;;;;
2021/12/27 08:46:36;;;;;;;11.5;6.9;;;;;;;5.15;80.68848;926.3256;;;;
2021/12/27 08:49:02;;;;;;;10.2;7.1;;;;;;;4.6;83.48828;926.3351;;;;
2021/12/27 08:51:28;;;;;;;7.9;4.9;;;;;;;4;86.66504;926.298;;;;
2021/12/27 08:53:53;;;;;;;5.7;4.2;;;;;;;3.68;89.28613;926.2803;;;;
2021/12/27 08:56:19;;;;;;;4.4;3.9;;;;;;;3.45;90.98926;926.2238;;;;
2021/12/27 08:58:44;;;;;;;3.5;2.9;;;;;;;3.55;91.00977;926.1772;;;;
2021/12/27 09:01:11;;;;;;;6.2;4.1;;;;;;;3.54;91.55859;926.163;;;;
2021/12/27 09:03:36;;;;;;;3.1;2.4;;;;;;;3.7;91.14355;926.1941;;;;
2021/12/27 09:06:04;;;;;;;6.8;3.7;;;;;;;3.6;91.70898;926.1399;;;;
2021/12/27 09:08:29;;;;;;;7.7;5.4;;;;;;;3.62;91.67871;926.145;;;;
2021/12/27 09:10:58;;;;;;;13.2;7.1;;;;;;;3.78;91.80176;926.1852;;;;
2021/12/27 09:13:22;;;;;;;8.8;5.9;;;;;;;3.73;91.05078;926.2292;;;;
2021/12/27 09:15:56;;;;;;;20.6;11.1;;;;;;;3.42;91.83887;926.1989;;;;
2021/12/27 09:18:23;;;;;;;13.2;7.8;;;;;;;3.25;92.69727;926.2138;;;;
2021/12/27 09:20:55;;;;;;;12.3;8.3;;;;;;;3.18;93.6709;926.2321;;;;
2021/12/27 09:23:22;;;;;;;8.1;5.9;;;;;;;3.16;93.77734;926.2442;;;;
2021/12/27 09:25:48;;;;;;;11.9;8.6;;;;;;;3.36;93.75391;926.1732;;;;
2021/12/27 09:28:14;;;;;;;8.3;5.8;;;;;;;3.56;92.07031;926.1917;;;;
2021/12/27 09:30:39;;;;;;;9;6.8;;;;;;;3.69;92.32031;926.2073;;;;
2021/12/27 09:33:06;;;;;;;7.4;5.8;;;;;;;3.92;91.47363;926.1528;;;;
2021/12/27 09:35:30;;;;;;;7.8;5.2;;;;;;;3.83;91.28516;926.1814;;;;
2021/12/27 09:37:57;;;;;;;4.7;3.3;;;;;;;3.8;91.35645;926.1932;;;;
2021/12/27 09:40:22;;;;;;;4.5;3.1;;;;;;;3.94;91.47559;926.0963;;;;
2021/12/27 09:42:47;;;;;;;4.6;3.8;;;;;;;4.07;90.5127;926.0906;;;;
2021/12/27 09:45:15;;;;;;;4.7;3.4;;;;;;;4.2;90.81152;926.0403;;;;
2021/12/27 09:47:40;;;;;;;4.4;3.3;;;;;;;4.19;90.32617;926.0363;;;;
2021/12/27 09:50:06;;;;;;;5.1;3.1;;;;;;;4.25;90.0127;926.028;;;;
2021/12/27 09:52:32;;;;;;;4;3.1;;;;;;;4.4;89.84277;926.046;;;;
2021/12/27 09:54:56;;;;;;;4.7;2.8;;;;;;;4.57;89.41699;925.9486;;;;
2021/12/27 09:57:21;;;;;;;6.2;4.2;;;;;;;4.71;88.55566;925.9355;;;;
2021/12/27 09:59:46;;;;;;;13.6;9.2;;;;;;;4.91;88.08984;925.9355;;;;
2021/12/27 10:02:12;;;;;;;6.1;4.6;;;;;;;4.92;89.07422;925.8986;;;;
2021/12/27 10:04:37;;;;;;;10.5;7.2;;;;;;;5.02;88.59668;925.8162;;;;
2021/12/27 10:07:02;;;;;;;8.6;5.2;;;;;;;4.94;87.41016;925.7394;;;;
2021/12/27 10:09:27;;;;;;;6.8;4.2;;;;;;;4.77;87.38574;925.7012;;;;
2021/12/27 10:11:53;;;;;;;4.6;3;;;;;;;4.83;86.38281;925.68;;;;
2021/12/27 10:14:18;;;;;;;7.4;5.1;;;;;;;4.9;86.55762;925.6831;;;;
2021/12/27 10:16:49;;;;;;;9.5;6.4;;;;;;;4.94;87.30859;925.6204;;;;
2021/12/27 10:19:16;;;;;;;7.7;4.9;;;;;;;4.83;88.1875;925.587;;;;
2021/12/27 10:21:43;;;;;;;7.1;5.2;;;;;;;4.96;88.27051;925.5645;;;;
2021/12/27 10:24:08;;;;;;;6.1;4.6;;;;;;;5.09;87.75488;925.5125;;;;
2021/12/27 10:26:33;;;;;;;6.2;4.8;;;;;;;5.14;87.55176;925.4253;;;;
2021/12/27 10:28:59;;;;;;;6.7;4.7;;;;;;;5.32;87.18164;925.3923;;;;
2021/12/27 10:31:25;;;;;;;7.7;5.4;;;;;;;5.44;84.25098;925.4047;;;;
2021/12/27 10:33:50;;;;;;;5.6;3.8;;;;;;;5.59;84.74414;925.3331;;;;
2021/12/27 10:36:16;;;;;;;2.9;2.2;;;;;;;5.32;83.71973;925.2416;;;;
2021/12/27 10:38:43;;;;;;;3.4;2.6;;;;;;;5.21;83.95605;925.1635;;;;
2021/12/27 10:41:08;;;;;;;2.6;2.4;;;;;;;5.32;82.95313;925.1714;;;;
2021/12/27 10:43:34;;;;;;;5.3;3.8;;;;;;;5.46;84.45801;925.1183;;;;
2021/12/27 10:45:59;;;;;;;5.4;3.5;;;;;;;5.55;83.74219;925.1347;;;;
2021/12/27 10:48:24;;;;;;;6.4;3.9;;;;;;;;;;;;;
2021/12/27 10:50:49;;;;;;;7.3;4.3;;;;;;;;;;;;;
2021/12/27 10:53:15;;;;;;;9.5;4.4;;;;;;;;;;;;;
2021/12/27 10:55:39;;;;;;;6.6;4.1;;;;;;;;;;;;;
2021/12/27 10:58:04;;;;;;;5.6;3.9;;;;;;;;;;;;;
2021/12/27 11:00:30;;;;;;;4.6;2.9;;;;;;;;;;;;;
2021/12/27 11:02:57;;;;;;;4;2.4;;;;;;;;;;;;;
2021/12/27 11:05:21;;;;;;;2.8;2.2;;;;;;;;;;;;;
2021/12/27 11:07:45;;;;;;;2.2;1.9;;;;;;;;;;;;;
2021/12/27 11:10:11;;;;;;;3;2.3;;;;;;;;;;;;;
2021/12/27 11:12:37;;;;;;;4.2;2.8;;;;;;;;;;;;;
2021/12/27 11:15:02;;;;;;;3.7;2.7;;;;;;;;;;;;;
2021/12/27 11:17:28;;;;;;;3.4;3.1;;;;;;;;;;;;;
2021/12/27 11:19:53;;;;;;;2.9;2.5;;;;;;;;;;;;;
2021/12/27 11:22:20;;;;;;;4.7;3.2;;;;;;;;;;;;;
2021/12/27 11:24:45;;;;;;;3.3;2.2;;;;;;;;;;;;;
2021/12/27 11:27:10;;;;;;;3.5;2.2;;;;;;;;;;;;;
2021/12/27 11:29:36;;;;;;;4.4;3.1;;;;;;;;;;;;;
2021/12/27 11:32:01;;;;;;;4.5;3.1;;;;;;;;;;;;;
2021/12/27 11:34:26;;;;;;;5.4;3.7;;;;;;;;;;;;;
2021/12/27 11:36:52;;;;;;;5.8;3.8;;;;;;;;;;;;;
2021/12/27 11:39:16;;;;;;;6.5;4.4;;;;;;;;;;;;;
2021/12/27 11:41:42;;;;;;;7;4.3;;;;;;;;;;;;;
2021/12/27 11:44:07;;;;;;;4.5;3;;;;;;;;;;;;;
2021/12/27 11:46:32;;;;;;;3;2.1;;;;;;;;;;;;;
2021/12/27 11:48:58;;;;;;;2.1;1.8;;;;;;;;;;;;;
2021/12/27 11:51:22;;;;;;;2.5;2.1;;;;;;;;;;;;;
2021/12/27 11:53:53;;;;;;;2.7;2;;;;;;;;;;;;;
2021/12/27 11:56:13;;;;;;;2.4;2.1;;;;;;;;;;;;;
2021/12/27 11:58:38;;;;;;;2.8;2.3;;;;;;;;;;;;;
2021/12/27 12:01:03;;;;;;;3.6;2.5;;;;;;;;;;;;;
2021/12/27 12:03:28;;;;;;;3.2;2.9;;;;;;;;;;;;;
2021/12/27 12:05:54;;;;;;;3.3;2.6;;;;;;;;;;;;;
2021/12/27 12:08:18;;;;;;;3.6;1.8;;;;;;;;;;;;;
2021/12/27 12:10:43;;;;;;;5.9;2.8;;;;;;;;;;;;;
2021/12/27 12:13:08;;;;;;;2.3;2;;;;;;;;;;;;;
2021/12/27 12:15:34;;;;;;;2.6;1.8;;;;;;;;;;;;;
2021/12/27 12:18:01;;;;;;;4.2;1.8;;;;;;;;;;;;;
2021/12/27 12:20:26;;;;;;;2;1.7;;;;;;;;;;;;;
2021/12/27 12:22:51;;;;;;;2.2;1.5;;;;;;;;;;;;;
2021/12/27 12:25:16;;;;;;;2.1;1.4;;;;;;;;;;;;;
2021/12/27 12:27:41;;;;;;;1.9;1.5;;;;;;;;;;;;;
2021/12/27 12:30:06;;;;;;;3;1.6;;;;;;;;;;;;;
2021/12/27 12:32:31;;;;;;;1.7;1.5;;;;;;;;;;;;;
2021/12/27 12:34:56;;;;;;;1.5;1.2;;;;;;;;;;;;;
2021/12/27 12:37:22;;;;;;;1.9;1.5;;;;;;;;;;;;;
2021/12/27 12:39:48;;;;;;;1.9;1.6;;;;;;;;;;;;;
2021/12/27 12:42:13;;;;;;;2.3;1.7;;;;;;;;;;;;;
2021/12/27 12:44:38;;;;;;;2.8;1.9;;;;;;;;;;;;;
2021/12/27 12:47:03;;;;;;;5.6;3;;;;;;;;;;;;;
2021/12/27 12:49:28;;;;;;;5.6;3.3;;;;;;;;;;;;;
2021/12/27 12:51:55;;;;;;;5.1;2.9;;;;;;;;;;;;;
2021/12/27 12:54:20;;;;;;;3.9;2.8;;;;;;;;;;;;;
2021/12/27 12:56:46;;;;;;;4.7;3;;;;;;;;;;;;;
2021/12/27 12:59:11;;;;;;;5.1;3;;;;;;;;;;;;;
2021/12/27 13:01:36;;;;;;;3.8;2.6;;;;;;;;;;;;;
2021/12/27 13:04:01;;;;;;;2.5;2;;;;;;;;;;;;;
2021/12/27 13:06:27;;;;;;;6.6;3;;;;;;;;;;;;;
2021/12/27 13:08:52;;;;;;;4.5;2.5;;;;;;;;;;;;;
2021/12/27 13:11:18;;;;;;;2.9;2;;;;;;;;;;;;;
2021/12/27 13:13:44;;;;;;;2.4;1.7;;;;;;;;;;;;;
2021/12/27 13:16:14;;;;;;;3;2.3;;;;;;;;;;;;;
2021/12/27 13:18:38;;;;;;;2.1;1.8;;;;;;;;;;;;;
2021/12/27 13:21:03;;;;;;;1.9;1.4;;;;;;;;;;;;;
2021/12/27 13:23:29;;;;;;;2.6;2;;;;;;;;;;;;;
2021/12/27 13:25:56;;;;;;;5.2;3.3;;;;;;;;;;;;;
2021/12/27 13:28:21;;;;;;;4.8;3.2;;;;;;;;;;;;;
2021/12/27 13:30:47;;;;;;;5.8;3.2;;;;;;;;;;;;;
2021/12/27 13:33:12;;;;;;;5.9;3.1;;;;;;;;;;;;;
2021/12/27 13:35:37;;;;;;;5;2.6;;;;;;;;;;;;;
2021/12/27 13:38:03;;;;;;;2.9;2;;;;;;;;;;;;;
2021/12/27 13:40:28;;;;;;;5.6;2.6;;;;;;;;;;;;;
2021/12/27 13:42:53;;;;;;;4;2.1;;;;;;;;;;;;;
2021/12/27 13:45:44;;;;;;;3.7;2.4;;;;;;;;;;;;;
2021/12/27 13:47:50;;;;;;;4.6;2.1;;;;;;;;;;;;;
2021/12/27 13:50:15;;;;;;;4.4;2.4;;;;;;;;;;;;;
2021/12/27 13:52:40;;;;;;;3.1;2.2;;;;;;;;;;;;;
2021/12/27 13:55:07;;;;;;;6;2.7;;;;;;;;;;;;;
2021/12/27 13:57:32;;;;;;;14.6;4.3;;;;;;;;;;;;;
2021/12/27 13:59:57;;;;;;;4.9;3.3;;;;;;;;;;;;;
2021/12/27 14:02:23;;;;;;;8.1;3.2;;;;;;;;;;;;;
2021/12/27 14:04:47;;;;;;;9.1;4.2;;;;;;;;;;;;;
2021/12/27 14:07:12;;;;;;;4.9;2.9;;;;;;;;;;;;;
2021/12/27 14:09:38;;;;;;;3.7;2.3;;;;;;;;;;;;;
2021/12/27 14:12:04;;;;;;;7.3;3.5;;;;;;;;;;;;;
2021/12/27 14:14:29;;;;;;;6.3;3.2;;;;;;;;;;;;;
2021/12/27 14:16:55;;;;;;;6.6;3.1;;;;;;;;;;;;;
2021/12/27 14:19:21;;;;;;;5.8;2.9;;;;;;;;;;;;;
2021/12/27 14:21:45;;;;;;;6.3;3.1;;;;;;;;;;;;;
2021/12/27 14:24:11;;;;;;;6.9;3.3;;;;;;;;;;;;;
2021/12/27 14:26:36;;;;;;;6;3.5;;;;;;;;;;;;;
2021/12/27 14:29:01;;;;;;;6.7;3.8;;;;;;;;;;;;;
2021/12/27 14:31:27;;;;;;;9.6;5.5;;;;;;;;;;;;;
2021/12/27 14:33:52;;;;;;;10.4;6.6;;;;;;;;;;;;;
2021/12/27 14:36:17;;;;;;;10.2;5.7;;;;;;;;;;;;;
2021/12/27 14:38:42;;;;;;;10.4;6.5;;;;;;;;;;;;;
2021/12/27 14:41:07;;;;;;;11.7;6.8;;;;;;;;;;;;;
2021/12/27 14:43:34;;;;;;;13.4;7.8;;;;;;;;;;;;;
2021/12/27 14:45:58;;;;;;;9.7;6.8;;;;;;;;;;;;;
2021/12/27 14:48:25;;;;;;;12.4;7.1;;;;;;;;;;;;;
2021/12/27 14:50:49;;;;;;;12.2;7.4;;;;;;;;;;;;;
2021/12/27 14:53:15;;;;;;;16;10.5;;;;;;;;;;;;;
2021/12/27 14:55:40;;;;;;;18.7;11.3;;;;;;;;;;;;;
2021/12/27 14:58:07;;;;;;;18.8;12.6;;;;;;;;;;;;;
2021/12/27 15:00:31;;;;;;;18.5;10.6;;;;;;;;;;;;;
2021/12/27 15:02:58;;;;;;;12.7;9.3;;;;;;;;;;;;;
2021/12/27 15:05:22;;;;;;;12.9;9;;;;;;;;;;;;;
2021/12/27 15:07:47;;;;;;;8.9;6.5;;;;;;;;;;;;;
2021/12/27 15:10:13;;;;;;;12.6;7.7;;;;;;;;;;;;;
2021/12/27 15:12:38;;;;;;;12.4;8.4;;;;;;;;;;;;;
2021/12/27 15:15:04;;;;;;;10.9;8.5;;;;;;;;;;;;;
2021/12/27 15:17:33;;;;;;;14.1;9.7;;;;;;;;;;;;;
2021/12/27 15:19:59;;;;;;;17.1;10.8;;;;;;;;;;;;;
2021/12/27 15:22:24;;;;;;;16;10.5;;;;;;;;;;;;;
2021/12/27 15:24:49;;;;;;;16.9;11.4;;;;;;;;;;;;;
2021/12/27 15:27:16;;;;;;;15.6;10.7;;;;;;;;;;;;;
2021/12/27 15:29:40;;;;;;;21.4;13;;;;;;;;;;;;;
2021/12/27 15:32:05;;;;;;;20.8;12.8;;;;;;;;;;;;;
2021/12/27 15:34:30;;;;;;;21.4;13.2;;;;;;;;;;;;;
2021/12/27 15:36:56;;;;;;;17.6;11.8;;;;;;;;;;;;;
2021/12/27 15:39:21;;;;;;;16.8;10.2;;;;;;;;;;;;;
2021/12/27 15:41:47;;;;;;;15.6;9.5;;;;;;;;;;;;;
2021/12/27 15:44:12;;;;;;;13.1;8.9;;;;;;;;;;;;;
2021/12/27 15:46:38;;;;;;;10.4;7.7;;;;;;;;;;;;;
2021/12/27 15:49:03;;;;;;;7.2;5.2;;;;;;;;;;;;;
2021/12/27 15:51:28;;;;;;;8.8;4.7;;;;;;;;;;;;;
2021/12/27 15:53:53;;;;;;;7.3;5;;;;;;;;;;;;;
2021/12/27 15:56:20;;;;;;;9.2;4.7;;;;;;;;;;;;;
2021/12/27 15:58:45;;;;;;;9.2;5.4;;;;;;;;;;;;;
2021/12/27 16:01:10;;;;;;;17.7;9.4;;;;;;;;;;;;;
2021/12/27 16:03:37;;;;;;;32.8;16.2;;;;;;;;;;;;;
2021/12/27 16:06:01;;;;;;;21.3;9.1;;;;;;;;;;;;;
2021/12/27 16:08:26;;;;;;;8.9;4.7;;;;;;;;;;;;;
2021/12/27 16:10:54;;;;;;;3;2.3;;;;;;;;;;;;;
2021/12/27 16:13:16;;;;;;;3.2;2.4;;;;;;;;;;;;;
2021/12/27 16:15:42;;;;;;;2.8;2;;;;;;;;;;;;;
2021/12/27 16:18:07;;;;;;;3.3;2.2;;;;;;;;;;;;;
2021/12/27 16:20:33;;;;;;;2.5;2.1;;;;;;;;;;;;;
2021/12/27 16:22:58;;;;;;;4.2;2.9;;;;;;;;;;;;;
2021/12/27 16:25:23;;;;;;;4.5;3;;;;;;;;;;;;;
2021/12/27 16:27:48;;;;;;;4.9;3.6;;;;;;;;;;;;;
2021/12/27 16:30:15;;;;;;;3.6;2.6;;;;;;;;;;;;;
2021/12/27 16:32:40;;;;;;;4.7;3.5;;;;;;;;;;;;;
2021/12/27 16:35:07;;;;;;;10.7;6;;;;;;;;;;;;;
2021/12/27 16:37:34;;;;;;;15.2;11.6;;;;;;;;;;;;;
2021/12/27 16:40:02;;;;;;;8.4;6.5;;;;;;;;;;;;;
2021/12/27 16:42:23;;;;;;;10.2;7.4;;;;;;;;;;;;;
2021/12/27 16:44:48;;;;;;;19.6;13.6;;;;;;;;;;;;;
2021/12/27 16:47:13;;;;;;;18.9;12.7;;;;;;;;;;;;;
2021/12/27 16:49:38;;;;;;;17.3;12.4;;;;;;;;;;;;;
2021/12/27 16:52:04;;;;;;;48.8;33.4;;;;;;;;;;;;;
2021/12/27 16:54:31;;;;;;;22.2;15.8;;;;;;;;;;;;;
2021/12/27 16:56:55;;;;;;;20.9;13.6;;;;;;;;;;;;;
2021/12/27 16:59:20;;;;;;;19.6;13.7;;;;;;;;;;;;;
2021/12/27 17:01:46;;;;;;;19.6;12.9;;;;;;;;;;;;;
2021/12/27 17:04:13;;;;;;;34.9;26.3;;;;;;;;;;;;;
2021/12/27 17:06:37;;;;;;;59.9;36.1;;;;;;;;;;;;;
2021/12/27 17:09:31;;;;;;;13.9;10.7;;;;;;;;;;;;;
2021/12/27 17:11:56;;;;;;;19.2;12.7;;;;;;;;;;;;;
2021/12/27 17:14:22;;;;;;;15.6;11.5;;;;;;;;;;;;;
2021/12/27 17:16:48;;;;;;;17;12;;;;;;;;;;;;;
2021/12/27 17:19:14;;;;;;;19.9;14;;;;;;;;;;;;;
2021/12/27 17:21:39;;;;;;;19.1;13.5;;;;;;;;;;;;;
2021/12/27 17:24:05;;;;;;;18.9;14.2;;;;;;;;;;;;;
2021/12/27 17:26:29;;;;;;;23.5;16.7;;;;;;;;;;;;;
2021/12/27 17:28:55;;;;;;;23.7;16.8;;;;;;;;;;;;;
2021/12/27 17:31:21;;;;;;;28.9;19.3;;;;;;;;;;;;;
2021/12/27 17:33:49;;;;;;;28.8;19;;;;;;;;;;;;;
2021/12/27 17:36:13;;;;;;;27.4;18.1;;;;;;;;;;;;;
2021/12/27 17:38:40;;;;;;;23.5;15.7;;;;;;;;;;;;;
2021/12/27 17:41:04;;;;;;;29.9;20.2;;;;;;;;;;;;;
2021/12/27 17:43:29;;;;;;;30.4;19.9;;;;;;;;;;;;;
2021/12/27 17:45:55;;;;;;;25.9;17.2;;;;;;;;;;;;;
2021/12/27 17:48:20;;;;;;;20.9;15;;;;;;;;;;;;;
2021/12/27 17:50:47;;;;;;;25.9;19.4;;;;;;;;;;;;;
2021/12/27 17:53:12;;;;;;;31.3;21.5;;;;;;;;;;;;;
2021/12/27 17:55:37;;;;;;;23.7;17.3;;;;;;;;;;;;;
2021/12/27 17:58:02;;;;;;;25.9;18.7;;;;;;;;;;;;;
2021/12/27 18:00:27;;;;;;;21.5;15.8;;;;;;;;;;;;;
2021/12/27 18:02:52;;;;;;;27.4;19.1;;;;;;;;;;;;;
2021/12/27 18:05:18;;;;;;;30.9;22.4;;;;;;;;;;;;;